Time;durP1;ratioP1;P1;durP2;ratioP2;P2;SDS_P1;SDS_P2;PMS_P1;PMS_P2;Temp;Humidity;BMP_temperature;BMP_pressure;BME280_temperature;BME280_humidity;BME280_pressure;Samples;Min_cycle;Max_cycle;Signal;HPM_P1;HPM_P2
2023/05/02 04:00:33;;;;;;;1.00;1.00;;;10.90;99.90;;;;;;5930201;23;21458;-74
2023/05/02 04:03:00;;;;;;;1.60;1.38;;;10.70;99.90;;;;;;5000579;28;20206;-73
2023/05/02 04:05:27;;;;;;;1.42;0.73;;;10.60;99.90;;;;;;5009861;28;20206;-74
2023/05/02 04:07:54;;;;;;;2.63;2.15;;;10.40;99.90;;;;;;5010511;28;20203;-73
2023/05/02 04:10:21;;;;;;;1.65;1.65;;;10.20;99.90;;;;;;5010818;28;20222;-74
2023/05/02 04:12:47;;;;;;;2.30;2.05;;;10.00;99.90;;;;;;5010847;28;20620;-74
2023/05/02 04:15:15;;;;;;;2.33;2.13;;;9.90;99.90;;;;;;5010823;28;20203;-73
2023/05/02 04:17:43;;;;;;;4.10;2.50;;;9.80;99.90;;;;;;5013253;28;20225;-76
2023/05/02 04:20:10;;;;;;;2.97;2.88;;;9.80;99.90;;;;;;5034501;28;20198;-76
2023/05/02 04:22:38;;;;;;;2.70;2.03;;;9.80;99.90;;;;;;5033721;28;20199;-77
2023/05/02 04:25:05;;;;;;;3.63;3.42;;;9.70;99.90;;;;;;5026812;28;20211;-74
2023/05/02 04:27:32;;;;;;;1.85;1.80;;;9.70;99.90;;;;;;5011826;28;20285;-72
2023/05/02 04:29:59;;;;;;;2.40;2.30;;;9.70;99.90;;;;;;5011005;28;20218;-75
2023/05/02 04:32:27;;;;;;;6.55;1.67;;;9.60;99.90;;;;;;5010534;28;20231;-74
2023/05/02 04:34:55;;;;;;;3.30;2.35;;;9.50;99.90;;;;;;5009507;28;20218;-74
2023/05/02 04:37:21;;;;;;;1.40;1.40;;;9.50;99.90;;;;;;5010677;28;20320;-74
2023/05/02 04:39:48;;;;;;;3.25;2.08;;;9.50;99.90;;;;;;5010437;28;20230;-74
2023/05/02 04:42:15;;;;;;;1.50;1.40;;;9.40;99.90;;;;;;5011437;28;20322;-74
2023/05/02 04:44:42;;;;;;;3.92;2.50;;;9.40;99.90;;;;;;5009666;28;20207;-74
2023/05/02 04:47:09;;;;;;;1.20;1.20;;;9.40;99.90;;;;;;5010533;28;20203;-73
2023/05/02 04:49:35;;;;;;;1.65;1.13;;;9.40;99.90;;;;;;5010044;28;20526;-75
2023/05/02 04:52:04;;;;;;;4.95;2.05;;;9.40;99.90;;;;;;5010250;28;20250;-74
2023/05/02 04:54:32;;;;;;;3.60;1.75;;;9.30;99.90;;;;;;5009550;28;20583;-73
2023/05/02 04:57:02;;;;;;;1.83;0.80;;;9.20;99.90;;;;;;5010187;28;20219;-74
2023/05/02 04:59:28;;;;;;;1.55;1.55;;;9.10;99.90;;;;;;5010136;28;20206;-74
2023/05/02 05:01:55;;;;;;;1.33;1.05;;;9.20;99.90;;;;;;5009771;28;20734;-75
2023/05/02 05:04:22;;;;;;;1.02;0.95;;;9.10;99.90;;;;;;5009094;28;20718;-74
2023/05/02 05:06:49;;;;;;;3.33;1.70;;;9.00;99.90;;;;;;5009920;28;20199;-75
2023/05/02 05:09:17;;;;;;;9.68;2.28;;;9.00;99.90;;;;;;5010107;28;20259;-75
2023/05/02 05:11:45;;;;;;;2.67;1.15;;;9.00;99.90;;;;;;5014282;28;20922;-75
2023/05/02 05:14:11;;;;;;;3.42;1.38;;;9.00;99.90;;;;;;5013548;28;20202;-74
2023/05/02 05:16:38;;;;;;;3.30;1.50;;;9.00;99.90;;;;;;5014558;28;20211;-75
2023/05/02 05:19:05;;;;;;;2.72;2.47;;;9.00;99.90;;;;;;5014031;28;20227;-75
2023/05/02 05:21:32;;;;;;;13.50;2.17;;;9.00;99.90;;;;;;5013859;28;20241;-75
2023/05/02 05:23:59;;;;;;;0.98;0.98;;;9.00;99.90;;;;;;5013570;28;20211;-75
2023/05/02 05:26:27;;;;;;;7.60;2.95;;;9.00;99.90;;;;;;5013900;28;20648;-75
2023/05/02 05:28:53;;;;;;;0.82;0.82;;;9.00;99.90;;;;;;5014089;28;20222;-75
2023/05/02 05:31:21;;;;;;;13.52;1.90;;;9.00;99.90;;;;;;5013822;28;20227;-76
2023/05/02 05:33:48;;;;;;;1.52;1.42;;;9.00;99.90;;;;;;5013342;28;20207;-74
2023/05/02 05:36:15;;;;;;;1.60;1.60;;;9.10;99.90;;;;;;5014212;28;20562;-75
2023/05/02 05:38:42;;;;;;;7.20;1.95;;;9.10;99.90;;;;;;5013896;28;20656;-75
2023/05/02 05:41:09;;;;;;;1.05;1.05;;;9.20;99.90;;;;;;5013844;28;20317;-74
2023/05/02 05:43:37;;;;;;;2.00;1.58;;;9.20;99.90;;;;;;5013138;28;20302;-75
2023/05/02 05:46:05;;;;;;;0.60;0.60;;;9.30;99.90;;;;;;5013510;28;20283;-75
2023/05/02 05:48:31;;;;;;;1.60;1.50;;;9.40;99.90;;;;;;5013732;28;20211;-75
2023/05/02 05:50:58;;;;;;;8.55;2.28;;;9.50;99.90;;;;;;5013448;28;20560;-75
2023/05/02 05:53:25;;;;;;;1.02;0.88;;;9.70;99.90;;;;;;5013270;28;20212;-74
2023/05/02 05:55:51;;;;;;;3.80;1.20;;;9.80;99.90;;;;;;5013782;28;20214;-75
2023/05/02 05:58:18;;;;;;;4.22;2.80;;;10.00;99.90;;;;;;5013971;28;20706;-74
2023/05/02 06:00:46;;;;;;;2.50;2.30;;;10.00;99.90;;;;;;5013756;28;20242;-74
2023/05/02 06:03:13;;;;;;;4.85;0.98;;;9.90;99.90;;;;;;5013810;28;20226;-79
2023/05/02 06:05:40;;;;;;;1.10;1.10;;;9.90;99.90;;;;;;5013194;28;20556;-74
2023/05/02 06:08:06;;;;;;;6.63;0.90;;;9.80;99.90;;;;;;5013509;28;20211;-74
2023/05/02 06:10:33;;;;;;;3.85;2.72;;;9.80;99.90;;;;;;5014049;28;20233;-74
2023/05/02 06:13:00;;;;;;;7.25;1.33;;;9.70;99.90;;;;;;5013357;28;20670;-74
2023/05/02 06:15:27;;;;;;;1.30;0.98;;;9.60;99.90;;;;;;5013213;28;20265;-75
2023/05/02 06:17:55;;;;;;;1.50;1.40;;;9.70;99.90;;;;;;5013214;28;20231;-73
2023/05/02 06:20:21;;;;;;;5.05;2.58;;;9.70;99.90;;;;;;5012287;28;20218;-73
2023/05/02 06:22:48;;;;;;;0.93;0.70;;;9.60;99.90;;;;;;5012906;28;20211;-73
2023/05/02 06:25:15;;;;;;;4.57;1.70;;;9.60;99.90;;;;;;5012558;28;20207;-73
2023/05/02 06:27:41;;;;;;;1.38;1.27;;;9.60;99.90;;;;;;5012745;28;20699;-73
2023/05/02 06:30:09;;;;;;;2.75;1.58;;;9.50;99.90;;;;;;5012640;28;20211;-74
2023/05/02 06:32:36;;;;;;;6.72;1.65;;;9.50;99.90;;;;;;5012691;28;20699;-73
2023/05/02 06:35:04;;;;;;;7.93;1.58;;;9.40;99.90;;;;;;5012372;28;20207;-74
2023/05/02 06:37:34;;;;;;;2.55;1.67;;;9.30;99.90;;;;;;5012765;28;20227;-74
2023/05/02 06:40:01;;;;;;;1.05;1.02;;;9.30;99.90;;;;;;5013299;28;20294;-74
2023/05/02 06:42:28;;;;;;;2.35;1.52;;;9.30;99.90;;;;;;5012933;28;20234;-73
2023/05/02 06:44:55;;;;;;;2.97;1.40;;;9.30;99.90;;;;;;5012287;28;20211;-74
2023/05/02 06:47:23;;;;;;;4.78;1.08;;;9.20;99.90;;;;;;5012407;28;20204;-73
2023/05/02 06:49:50;;;;;;;1.85;1.75;;;9.20;99.90;;;;;;5012144;28;20207;-73
2023/05/02 06:52:18;;;;;;;1.80;1.70;;;9.20;99.90;;;;;;5012409;28;20231;-74
2023/05/02 06:54:45;;;;;;;2.47;1.70;;;9.20;99.90;;;;;;5011489;28;20211;-74
2023/05/02 06:57:11;;;;;;;2.08;1.98;;;9.20;99.90;;;;;;5012391;28;20643;-74
2023/05/02 06:59:38;;;;;;;1.13;1.13;;;9.10;99.90;;;;;;5012266;28;20279;-74
2023/05/02 07:02:05;;;;;;;0.85;0.82;;;9.10;99.90;;;;;;5010639;28;20231;-74
2023/05/02 07:04:31;;;;;;;0.55;0.55;;;9.00;99.90;;;;;;5011107;28;20210;-74
2023/05/02 07:06:58;;;;;;;6.47;1.52;;;8.90;99.90;;;;;;5012098;28;20233;-74
2023/05/02 07:09:26;;;;;;;1.48;1.48;;;8.90;99.90;;;;;;5011791;28;20214;-74
2023/05/02 07:11:53;;;;;;;2.15;1.52;;;8.90;99.90;;;;;;5012059;28;20227;-75
2023/05/02 07:14:20;;;;;;;1.67;1.40;;;8.90;99.90;;;;;;5011384;28;20222;-74
2023/05/02 07:16:47;;;;;;;8.88;3.38;;;8.90;99.90;;;;;;5012326;28;20603;-73
2023/05/02 07:19:14;;;;;;;1.38;1.27;;;8.80;99.90;;;;;;5011470;28;20226;-74
2023/05/02 07:21:40;;;;;;;1.58;1.52;;;8.80;99.90;;;;;;5011703;28;20257;-73
2023/05/02 07:24:07;;;;;;;2.35;1.90;;;8.80;99.90;;;;;;5010507;28;20687;-74
2023/05/02 07:26:35;;;;;;;5.97;3.30;;;8.80;99.90;;;;;;5012209;28;20215;-73
2023/05/02 07:29:05;;;;;;;2.03;1.85;;;8.90;99.90;;;;;;5011811;28;20245;-74
2023/05/02 07:31:32;;;;;;;1.40;1.30;;;8.90;99.90;;;;;;5026051;28;20242;-75
2023/05/02 07:33:58;;;;;;;1.52;1.52;;;8.90;99.90;;;;;;5033308;28;20324;-75
2023/05/02 07:36:26;;;;;;;1.52;1.42;;;9.00;99.90;;;;;;5030770;28;20501;-74
2023/05/02 07:38:53;;;;;;;1.13;1.13;;;9.00;99.90;;;;;;5017416;28;20238;-73
2023/05/02 07:41:20;;;;;;;0.80;0.80;;;9.00;99.90;;;;;;5012582;28;20227;-72
2023/05/02 07:43:48;;;;;;;1.38;1.38;;;9.00;99.90;;;;;;5011024;28;20203;-73
2023/05/02 07:46:15;;;;;;;2.25;1.98;;;9.00;99.90;;;;;;5011378;28;20214;-74
2023/05/02 07:48:41;;;;;;;4.50;4.22;;;9.00;99.90;;;;;;5011642;28;20208;-73
2023/05/02 07:51:09;;;;;;;1.05;1.05;;;9.10;99.90;;;;;;5011157;28;20253;-73
2023/05/02 07:53:36;;;;;;;2.05;1.95;;;9.10;99.90;;;;;;5010313;28;20214;-74
2023/05/02 07:56:03;;;;;;;1.95;0.80;;;9.10;99.90;;;;;;5011110;28;20213;-74
2023/05/02 07:58:30;;;;;;;5.78;1.77;;;9.10;99.90;;;;;;5011619;28;20235;-73
2023/05/02 08:00:58;;;;;;;9.85;1.50;;;9.10;99.90;;;;;;5011275;28;20318;-74
2023/05/02 08:03:26;;;;;;;1.05;1.05;;;9.10;99.90;;;;;;5010910;28;20217;-74
2023/05/02 08:05:53;;;;;;;2.08;0.98;;;9.20;99.90;;;;;;5013053;28;20306;-74
2023/05/02 08:08:20;;;;;;;1.08;1.08;;;9.20;99.90;;;;;;5014306;28;20203;-73
2023/05/02 08:10:47;;;;;;;1.77;1.67;;;9.30;99.90;;;;;;5016043;28;20238;-73
2023/05/02 08:13:13;;;;;;;1.70;1.60;;;9.30;99.90;;;;;;5016120;28;20561;-74
2023/05/02 08:15:40;;;;;;;1.02;0.95;;;9.40;99.90;;;;;;5017315;28;20211;-75
2023/05/02 08:18:08;;;;;;;1.35;1.35;;;9.30;99.90;;;;;;5017956;28;20643;-73
2023/05/02 08:20:35;;;;;;;1.30;1.30;;;9.40;99.90;;;;;;5010792;28;20738;-73
2023/05/02 08:23:02;;;;;;;1.35;1.23;;;9.50;99.90;;;;;;5010766;28;20207;-73
2023/05/02 08:25:29;;;;;;;3.15;2.38;;;9.50;99.90;;;;;;5010150;28;20207;-73
2023/05/02 08:27:56;;;;;;;4.53;2.92;;;9.60;99.90;;;;;;5010406;28;20712;-73
2023/05/02 08:30:23;;;;;;;2.58;2.47;;;9.70;99.90;;;;;;5010945;28;20543;-73
2023/05/02 08:32:50;;;;;;;2.05;1.50;;;9.80;99.90;;;;;;5010579;28;20296;-75
2023/05/02 08:35:18;;;;;;;2.30;2.10;;;9.90;99.90;;;;;;5009902;28;20207;-73
2023/05/02 08:37:45;;;;;;;1.48;1.48;;;10.00;99.90;;;;;;5010304;28;20506;-73
2023/05/02 08:40:12;;;;;;;0.80;0.80;;;10.20;99.90;;;;;;5010593;28;20207;-73
2023/05/02 08:42:42;;;;;;;1.40;1.40;;;10.30;99.90;;;;;;5010691;28;20207;-74
2023/05/02 08:45:10;;;;;;;0.60;0.60;;;10.40;99.90;;;;;;5009991;28;20203;-73
2023/05/02 08:47:39;;;;;;;1.95;1.85;;;10.40;99.90;;;;;;5010339;28;20684;-74
2023/05/02 08:50:08;;;;;;;1.83;1.45;;;10.30;99.90;;;;;;5010517;28;20211;-73
2023/05/02 08:52:36;;;;;;;0.50;0.50;;;10.50;99.90;;;;;;5010338;28;20266;-73
2023/05/02 08:55:04;;;;;;;2.38;1.90;;;10.60;99.90;;;;;;5010235;28;20203;-74
2023/05/02 08:57:31;;;;;;;1.08;0.80;;;10.60;99.90;;;;;;5010436;28;20213;-73
2023/05/02 08:59:58;;;;;;;3.42;1.75;;;10.70;99.90;;;;;;5010104;28;20222;-74
2023/05/02 09:02:44;;;;;;;2.97;2.88;;;10.80;99.90;;;;;;5008867;28;20234;-72
2023/05/02 09:05:14;;;;;;;2.35;1.08;;;10.70;99.90;;;;;;4989797;28;20208;-73
2023/05/02 09:07:48;;;;;;;2.28;2.20;;;10.60;99.90;;;;;;4990485;28;20211;-73
2023/05/02 09:10:14;;;;;;;2.17;0.88;;;10.60;99.90;;;;;;4990559;28;20212;-73
2023/05/02 09:12:41;;;;;;;2.35;2.25;;;10.70;99.90;;;;;;4990868;28;20211;-73
2023/05/02 09:15:14;;;;;;;1.92;1.83;;;10.60;99.90;;;;;;4990244;28;20688;-74
2023/05/02 09:17:42;;;;;;;1.35;1.25;;;10.50;99.90;;;;;;4990625;28;20208;-73
2023/05/02 09:20:10;;;;;;;3.65;3.38;;;10.70;99.90;;;;;;4990450;28;20216;-73
2023/05/02 09:22:37;;;;;;;1.98;1.88;;;10.70;99.90;;;;;;4990287;28;20693;-73
2023/05/02 09:25:06;;;;;;;3.58;1.63;;;10.80;99.90;;;;;;4990471;28;20220;-74
2023/05/02 09:27:51;;;;;;;3.45;1.88;;;10.80;99.90;;;;;;4990717;28;20226;-73
2023/05/02 09:30:20;;;;;;;2.92;2.72;;;11.00;99.90;;;;;;4990808;28;20192;-74
2023/05/02 09:32:49;;;;;;;2.33;1.40;;;11.10;99.90;;;;;;4990918;28;20208;-73
2023/05/02 09:35:22;;;;;;;2.00;2.00;;;11.10;99.90;;;;;;4989721;28;20220;-74
2023/05/02 09:37:52;;;;;;;2.50;1.42;;;11.10;99.90;;;;;;4990342;28;20309;-74
2023/05/02 09:40:21;;;;;;;2.80;2.60;;;11.10;99.90;;;;;;4990687;28;20722;-74
2023/05/02 09:42:47;;;;;;;2.50;2.40;;;11.10;99.90;;;;;;4991060;28;20254;-74
2023/05/02 09:45:25;;;;;;;1.52;1.52;;;11.00;99.90;;;;;;4990183;28;20216;-74
2023/05/02 09:47:52;;;;;;;1.17;1.17;;;11.10;99.90;;;;;;4990922;28;20207;-74
2023/05/02 09:50:36;;;;;;;7.13;2.97;;;11.40;99.90;;;;;;4990518;28;20291;-73
2023/05/02 09:53:05;;;;;;;3.97;3.00;;;11.60;99.90;;;;;;4990345;28;20207;-74
2023/05/02 09:55:33;;;;;;;8.90;1.80;;;11.80;99.90;;;;;;4991443;28;20572;-74
2023/05/02 09:58:00;;;;;;;3.40;3.10;;;11.90;99.90;;;;;;4993945;28;20478;-74
2023/05/02 10:00:42;;;;;;;2.83;2.37;;;12.10;99.90;;;;;;4993889;28;20463;-74
2023/05/02 10:03:10;;;;;;;6.63;1.70;;;12.20;99.90;;;;;;5007640;28;20492;-74
2023/05/02 10:05:39;;;;;;;2.00;1.80;;;12.20;99.90;;;;;;5013664;28;20466;-74
2023/05/02 10:08:07;;;;;;;1.80;1.27;;;12.10;99.90;;;;;;5013218;28;20465;-74
2023/05/02 10:10:37;;;;;;;2.30;1.60;;;11.90;99.90;;;;;;5013657;28;20485;-74
2023/05/02 10:13:05;;;;;;;2.78;2.58;;;11.80;99.90;;;;;;5013156;28;20462;-74
2023/05/02 10:15:33;;;;;;;5.03;1.10;;;11.80;99.90;;;;;;5037447;23;20223;-75
2023/05/02 10:18:03;;;;;;;2.25;0.75;;;11.90;99.90;;;;;;5016876;28;20458;-76
2023/05/02 10:20:32;;;;;;;2.03;1.90;;;12.00;99.90;;;;;;5016645;28;20211;-75
2023/05/02 10:23:00;;;;;;;1.67;0.80;;;12.20;99.90;;;;;;5016993;28;20462;-75
2023/05/02 10:25:28;;;;;;;1.42;1.35;;;12.00;99.90;;;;;;5016239;28;20627;-75
2023/05/02 10:27:58;;;;;;;3.03;1.98;;;11.90;99.90;;;;;;5017101;28;20691;-75
2023/05/02 10:30:25;;;;;;;3.58;2.53;;;11.70;99.90;;;;;;5016303;28;20667;-75
2023/05/02 10:32:53;;;;;;;2.00;1.50;;;11.90;99.90;;;;;;5015304;28;20691;-75
2023/05/02 10:35:21;;;;;;;6.55;2.55;;;12.00;99.90;;;;;;5015644;28;20898;-75
2023/05/02 10:37:48;;;;;;;1.37;1.27;;;12.00;99.90;;;;;;5017062;28;20215;-75
2023/05/02 10:40:15;;;;;;;0.95;0.95;;;11.90;99.90;;;;;;5017908;28;20521;-75
2023/05/02 10:42:46;;;;;;;1.05;1.00;;;11.90;99.90;;;;;;5017143;28;20576;-74
2023/05/02 10:45:31;;;;;;;1.70;1.58;;;11.90;99.90;;;;;;5016199;28;20234;-75
2023/05/02 10:48:18;;;;;;;16.30;1.20;;;12.00;99.90;;;;;;5017015;28;20657;-75
2023/05/02 10:50:47;;;;;;;1.80;1.77;;;12.30;99.90;;;;;;5015548;28;20635;-75
2023/05/02 10:53:28;;;;;;;4.63;2.53;;;12.60;99.90;;;;;;5012526;28;20926;-75
2023/05/02 10:56:13;;;;;;;2.00;2.00;;;12.70;99.90;;;;;;5012953;28;20520;-75
2023/05/02 10:58:41;;;;;;;5.80;2.53;;;12.70;99.90;;;;;;5015748;28;20549;-74
2023/05/02 11:01:36;;;;;;;3.10;2.47;;;12.80;99.90;;;;;;5015471;28;20577;-73
2023/05/02 11:04:04;;;;;;;2.20;2.10;;;12.80;99.90;;;;;;5012605;28;20462;-73
2023/05/02 11:06:33;;;;;;;2.67;2.47;;;12.80;99.90;;;;;;5012440;28;21032;-74
2023/05/02 11:09:33;;;;;;;1.67;1.67;;;12.60;99.90;;;;;;5011585;28;20458;-74
2023/05/02 11:12:00;;;;;;;6.03;3.03;;;12.80;99.90;;;;;;5012696;28;20473;-74
2023/05/02 11:14:47;;;;;;;3.60;1.73;;;12.80;99.90;;;;;;5011878;28;20866;-74
2023/05/02 11:17:16;;;;;;;0.63;0.63;;;12.80;99.90;;;;;;5012625;28;20469;-74
2023/05/02 11:20:24;;;;;;;3.90;1.60;;;13.00;99.90;;;;;;5012072;28;20544;-75
2023/05/02 11:22:52;;;;;;;3.00;2.90;;;12.90;99.90;;;;;;5012478;28;20465;-74
2023/05/02 11:25:35;;;;;;;1.13;1.03;;;13.00;99.90;;;;;;5011987;28;20485;-74
2023/05/02 11:28:04;;;;;;;1.40;1.40;;;12.90;99.90;;;;;;5012738;28;20469;-75
2023/05/02 11:30:42;;;;;;;0.50;0.50;;;13.00;99.90;;;;;;5012961;28;20472;-74
2023/05/02 11:33:18;;;;;;;2.00;1.60;;;13.00;99.90;;;;;;5012975;28;20466;-74
2023/05/02 11:35:47;;;;;;;5.63;3.20;;;13.00;99.90;;;;;;5012283;28;20485;-74
2023/05/02 11:38:20;;;;;;;5.00;1.80;;;13.00;99.90;;;;;;5011981;28;20462;-74
2023/05/02 11:40:55;;;;;;;2.93;1.50;;;13.00;99.90;;;;;;5012669;28;20952;-74
2023/05/02 11:43:24;;;;;;;1.53;1.43;;;13.00;99.90;;;;;;5011839;28;20468;-74
2023/05/02 11:45:51;;;;;;;0.80;0.77;;;12.90;99.90;;;;;;5012081;28;20482;-74
2023/05/02 11:48:21;;;;;;;6.57;1.60;;;13.00;99.90;;;;;;5012035;28;20466;-74
2023/05/02 11:50:49;;;;;;;0.90;0.83;;;13.00;99.90;;;;;;5011661;28;20525;-75
2023/05/02 11:53:18;;;;;;;0.80;0.80;;;13.20;99.90;;;;;;5011500;28;20484;-73
2023/05/02 11:55:46;;;;;;;4.77;2.07;;;13.30;99.90;;;;;;5012391;28;20485;-73
2023/05/02 11:58:14;;;;;;;1.37;1.37;;;13.40;99.90;;;;;;5012175;28;20465;-73
2023/05/02 12:00:44;;;;;;;1.30;1.20;;;13.40;99.90;;;;;;5010571;28;21092;-73
2023/05/02 12:03:22;;;;;;;1.67;1.57;;;13.40;99.90;;;;;;5011736;28;20876;-73
2023/05/02 12:05:49;;;;;;;0.50;0.50;;;13.40;99.90;;;;;;5011313;28;20557;-73
2023/05/02 12:08:23;;;;;;;1.13;1.13;;;13.20;99.90;;;;;;5011426;28;21017;-73
2023/05/02 12:10:52;;;;;;;2.17;1.40;;;13.30;99.90;;;;;;5012298;28;20457;-72
2023/05/02 12:13:20;;;;;;;1.80;0.83;;;13.20;99.90;;;;;;5012113;28;20544;-71
2023/05/02 12:15:49;;;;;;;3.67;2.70;;;13.30;99.90;;;;;;5012054;28;20856;-71
2023/05/02 12:18:16;;;;;;;4.63;4.20;;;13.30;99.90;;;;;;5015284;28;20462;-72
2023/05/02 12:20:45;;;;;;;1.53;1.53;;;13.30;99.90;;;;;;5015345;28;20498;-72
2023/05/02 12:23:12;;;;;;;2.13;0.80;;;13.30;99.90;;;;;;5011791;28;20462;-71
2023/05/02 12:25:40;;;;;;;0.97;0.97;;;13.30;99.90;;;;;;5011660;28;20488;-72
2023/05/02 12:28:07;;;;;;;1.10;0.77;;;13.20;99.90;;;;;;5011844;28;20462;-72
2023/05/02 12:30:34;;;;;;;1.10;0.60;;;13.20;99.90;;;;;;5011686;28;20469;-72
2023/05/02 12:33:02;;;;;;;0.43;0.40;;;13.00;99.90;;;;;;5011747;28;20462;-71
2023/05/02 12:35:30;;;;;;;0.57;0.57;;;12.90;99.90;;;;;;5010550;28;20490;-72
2023/05/02 12:38:11;;;;;;;3.00;1.90;;;12.90;99.90;;;;;;5011795;28;20470;-72
2023/05/02 12:40:39;;;;;;;0.93;0.93;;;13.00;99.90;;;;;;5011926;28;20501;-72
2023/05/02 12:43:09;;;;;;;0.57;0.57;;;13.30;99.90;;;;;;5011337;28;20466;-72
2023/05/02 12:45:38;;;;;;;0.40;0.40;;;13.30;99.90;;;;;;5010916;28;20478;-72
2023/05/02 12:48:22;;;;;;;0.43;0.40;;;13.30;99.90;;;;;;5011206;28;20476;-72
2023/05/02 12:50:49;;;;;;;0.70;0.70;;;13.20;99.90;;;;;;5010811;28;20466;-72
2023/05/02 12:53:17;;;;;;;0.27;0.27;;;13.10;99.90;;;;;;5010301;28;20466;-72
2023/05/02 12:55:44;;;;;;;0.50;0.37;;;12.80;99.90;;;;;;5010552;28;20486;-72
2023/05/02 12:58:13;;;;;;;0.50;0.30;;;12.60;99.90;;;;;;5011048;28;20468;-72
2023/05/02 13:00:41;;;;;;;0.57;0.57;;;12.50;99.90;;;;;;5009596;28;20572;-72
2023/05/02 13:03:09;;;;;;;0.20;0.20;;;12.40;99.90;;;;;;5012302;28;20477;-72
2023/05/02 13:05:36;;;;;;;5.05;0.65;;;12.30;99.90;;;;;;5011355;28;20496;-73
2023/05/02 13:08:03;;;;;;;0.63;0.40;;;12.30;99.90;;;;;;5011687;28;20692;-72
2023/05/02 13:10:32;;;;;;;0.43;0.43;;;12.30;99.90;;;;;;5012284;28;20458;-73
2023/05/02 13:12:58;;;;;;;0.43;0.30;;;12.30;99.90;;;;;;5012873;28;20520;-72
2023/05/02 13:15:25;;;;;;;0.40;0.40;;;12.40;99.90;;;;;;5011940;28;20239;-72
2023/05/02 13:17:52;;;;;;;0.97;0.97;;;12.60;99.90;;;;;;5013167;28;20206;-75
2023/05/02 13:20:19;;;;;;;0.30;0.30;;;12.60;99.90;;;;;;5013518;28;20512;-73
2023/05/02 13:22:46;;;;;;;0.70;0.70;;;12.50;99.90;;;;;;5013853;28;20465;-74
2023/05/02 13:25:13;;;;;;;0.40;0.40;;;12.50;99.90;;;;;;5011750;28;20486;-73
2023/05/02 13:27:41;;;;;;;0.60;0.60;;;12.40;99.90;;;;;;5012883;28;20207;-72
2023/05/02 13:30:10;;;;;;;0.40;0.40;;;12.50;99.90;;;;;;5012431;28;20458;-73
2023/05/02 13:32:37;;;;;;;0.40;0.40;;;12.50;99.90;;;;;;5015560;28;20469;-73
2023/05/02 13:35:04;;;;;;;0.50;0.50;;;12.50;99.90;;;;;;5015057;28;20477;-73
2023/05/02 13:37:31;;;;;;;1.63;0.67;;;12.60;99.90;;;;;;5015114;28;20877;-73
2023/05/02 13:39:58;;;;;;;0.40;0.40;;;12.50;99.90;;;;;;5015478;28;20493;-73
2023/05/02 13:42:25;;;;;;;0.50;0.50;;;12.50;99.90;;;;;;5016373;28;20472;-73
2023/05/02 13:44:53;;;;;;;0.70;0.70;;;12.40;99.90;;;;;;5015454;28;20477;-71
2023/05/02 13:47:20;;;;;;;3.92;1.05;;;12.30;99.90;;;;;;5015911;28;20480;-72
2023/05/02 13:49:47;;;;;;;0.30;0.30;;;12.20;99.90;;;;;;5015317;28;20289;-72
2023/05/02 13:52:13;;;;;;;0.75;0.75;;;12.20;99.90;;;;;;5015764;28;20813;-72
2023/05/02 13:54:40;;;;;;;0.90;0.90;;;12.20;99.90;;;;;;5014919;28;20225;-72
2023/05/02 13:57:07;;;;;;;0.40;0.30;;;12.30;99.90;;;;;;5016927;28;20480;-73
2023/05/02 13:59:34;;;;;;;0.70;0.70;;;12.40;99.90;;;;;;5016611;28;20494;-72
2023/05/02 14:02:02;;;;;;;1.77;0.83;;;12.40;99.90;;;;;;5016447;28;20458;-71
2023/05/02 14:04:29;;;;;;;0.30;0.30;;;12.60;99.90;;;;;;5015833;28;20967;-72
2023/05/02 14:06:55;;;;;;;0.47;0.47;;;12.60;99.90;;;;;;5015200;28;20233;-72
2023/05/02 14:09:22;;;;;;;0.63;0.63;;;12.60;99.90;;;;;;5014273;28;20822;-71
2023/05/02 14:11:49;;;;;;;0.30;0.30;;;12.70;99.90;;;;;;5014408;28;20969;-73
2023/05/02 14:14:16;;;;;;;0.50;0.50;;;12.70;99.90;;;;;;5013854;28;20469;-72
2023/05/02 14:16:42;;;;;;;1.50;0.70;;;12.60;99.90;;;;;;5014156;28;20581;-71
2023/05/02 14:19:11;;;;;;;0.70;0.70;;;12.40;99.90;;;;;;5014280;28;20472;-76
2023/05/02 14:21:37;;;;;;;0.60;0.60;;;12.40;99.90;;;;;;5013862;28;20667;-73
2023/05/02 14:24:05;;;;;;;3.20;0.52;;;12.40;99.90;;;;;;5013435;28;20477;-72
2023/05/02 14:26:33;;;;;;;0.67;0.50;;;12.40;99.90;;;;;;5013810;28;20672;-72
2023/05/02 14:29:00;;;;;;;2.87;0.60;;;12.40;99.90;;;;;;5013856;28;20462;-73
2023/05/02 14:31:27;;;;;;;0.60;0.53;;;12.50;99.90;;;;;;5013723;28;20466;-71
2023/05/02 14:33:53;;;;;;;0.30;0.30;;;12.50;99.90;;;;;;5014543;28;20474;-71
2023/05/02 14:36:22;;;;;;;0.40;0.40;;;12.40;99.90;;;;;;5014099;28;20490;-71
2023/05/02 14:38:48;;;;;;;0.30;0.30;;;12.20;99.90;;;;;;5014004;28;20473;-72
2023/05/02 14:41:15;;;;;;;0.75;0.75;;;12.20;99.90;;;;;;5013292;28;20230;-71
2023/05/02 14:43:42;;;;;;;1.38;1.17;;;12.10;99.90;;;;;;5013102;28;20207;-71
2023/05/02 14:46:09;;;;;;;0.40;0.40;;;12.00;99.90;;;;;;5013550;28;20544;-71
2023/05/02 14:48:35;;;;;;;2.20;2.10;;;12.00;99.90;;;;;;5013862;28;20293;-71
2023/05/02 14:51:06;;;;;;;0.50;0.50;;;12.10;99.90;;;;;;5013402;28;20549;-72
2023/05/02 14:53:34;;;;;;;2.83;1.00;;;12.10;99.90;;;;;;5012691;28;20234;-72
2023/05/02 14:56:00;;;;;;;0.30;0.30;;;12.00;99.90;;;;;;5013201;28;20733;-73
2023/05/02 14:58:28;;;;;;;1.05;1.05;;;12.10;99.90;;;;;;5013124;28;20467;-72
2023/05/02 15:00:55;;;;;;;1.55;1.45;;;12.20;99.90;;;;;;5012575;28;20713;-72
2023/05/02 15:03:21;;;;;;;3.33;3.03;;;12.30;99.90;;;;;;5012900;28;20199;-71
2023/05/02 15:05:48;;;;;;;4.70;1.70;;;12.40;99.90;;;;;;5012514;28;20860;-71
2023/05/02 15:08:15;;;;;;;1.50;1.40;;;12.50;99.90;;;;;;5012503;28;20469;-72
2023/05/02 15:10:43;;;;;;;1.83;1.83;;;12.50;99.90;;;;;;5012836;28;20462;-72
2023/05/02 15:13:09;;;;;;;1.40;1.40;;;12.40;99.90;;;;;;5013256;28;20472;-72
2023/05/02 15:15:36;;;;;;;1.00;1.00;;;12.40;99.90;;;;;;5012511;28;20867;-72
2023/05/02 15:18:04;;;;;;;0.30;0.30;;;12.20;99.90;;;;;;5013112;28;20493;-72
2023/05/02 15:20:30;;;;;;;0.70;0.70;;;12.10;99.90;;;;;;5012349;28;20481;-72
2023/05/02 15:23:02;;;;;;;0.60;0.60;;;12.00;99.90;;;;;;5012363;28;20234;-72
2023/05/02 15:25:28;;;;;;;0.50;0.50;;;11.90;99.90;;;;;;5012332;28;20270;-71
2023/05/02 15:27:57;;;;;;;0.45;0.45;;;11.90;99.90;;;;;;5012691;28;20217;-72
2023/05/02 15:30:23;;;;;;;0.85;0.85;;;11.80;99.90;;;;;;5012511;28;20210;-73
2023/05/02 15:32:50;;;;;;;0.73;0.73;;;11.80;99.90;;;;;;5012656;28;20207;-72
2023/05/02 15:35:17;;;;;;;2.00;1.80;;;11.70;99.90;;;;;;5011472;28;20231;-72
2023/05/02 15:37:43;;;;;;;1.23;1.23;;;11.70;99.90;;;;;;5011951;28;20211;-73
2023/05/02 15:40:11;;;;;;;1.95;0.82;;;11.70;99.90;;;;;;5012477;28;20227;-72
2023/05/02 15:42:39;;;;;;;1.23;1.17;;;11.60;99.90;;;;;;5012813;28;20229;-72
2023/05/02 15:45:08;;;;;;;4.07;0.93;;;11.50;99.90;;;;;;5011851;28;20625;-74
2023/05/02 15:47:35;;;;;;;0.73;0.73;;;11.50;99.90;;;;;;5012579;28;20695;-72
2023/05/02 15:50:01;;;;;;;0.55;0.55;;;11.50;99.90;;;;;;5012680;28;20207;-74
2023/05/02 15:52:28;;;;;;;2.65;1.13;;;11.40;99.90;;;;;;5013788;28;20222;-73
2023/05/02 15:54:55;;;;;;;1.67;0.85;;;11.40;99.90;;;;;;5012961;28;20234;-72
2023/05/02 15:57:22;;;;;;;0.57;0.57;;;11.30;99.90;;;;;;5012573;28;20617;-72
2023/05/02 15:59:49;;;;;;;0.82;0.82;;;11.40;99.90;;;;;;5012477;28;20211;-72
2023/05/02 16:02:17;;;;;;;5.07;1.17;;;11.30;99.90;;;;;;5012194;28;20199;-71
2023/05/02 16:04:43;;;;;;;0.70;0.70;;;11.30;99.90;;;;;;5010759;28;20659;-71
2023/05/02 16:07:10;;;;;;;0.45;0.45;;;11.30;99.90;;;;;;5011691;28;20667;-72
2023/05/02 16:09:38;;;;;;;0.43;0.43;;;11.40;99.90;;;;;;5011577;28;20207;-71
2023/05/02 16:12:06;;;;;;;1.02;0.52;;;11.40;99.90;;;;;;5012114;28;20211;-71
2023/05/02 16:14:33;;;;;;;2.22;1.35;;;11.40;99.90;;;;;;5010742;28;20215;-72
2023/05/02 16:17:00;;;;;;;0.77;0.77;;;11.50;99.90;;;;;;5016817;23;20247;-74
2023/05/02 16:19:28;;;;;;;2.15;0.50;;;11.50;99.90;;;;;;4991936;28;20204;-73
2023/05/02 16:21:55;;;;;;;2.05;0.80;;;11.50;99.90;;;;;;4991453;28;20227;-74
2023/05/02 16:24:21;;;;;;;0.90;0.90;;;11.50;99.90;;;;;;4990478;28;20212;-73
2023/05/02 16:26:48;;;;;;;0.50;0.50;;;11.50;99.90;;;;;;4990900;28;20235;-74
2023/05/02 16:29:15;;;;;;;0.50;0.50;;;11.50;99.90;;;;;;4991308;28;20214;-73
2023/05/02 16:31:42;;;;;;;0.95;0.95;;;11.60;99.90;;;;;;4991031;28;20347;-73
2023/05/02 16:34:09;;;;;;;0.85;0.85;;;11.60;99.90;;;;;;4991343;28;20621;-73
2023/05/02 16:36:37;;;;;;;0.82;0.60;;;11.60;99.90;;;;;;4992674;28;20236;-73
2023/05/02 16:39:03;;;;;;;3.70;1.08;;;11.60;99.90;;;;;;4995974;28;20212;-73
2023/05/02 16:41:30;;;;;;;1.23;1.15;;;11.60;99.90;;;;;;4994237;28;20235;-73
2023/05/02 16:43:57;;;;;;;1.95;1.60;;;11.60;99.90;;;;;;4992947;28;20220;-74
2023/05/02 16:46:24;;;;;;;0.60;0.60;;;11.60;99.90;;;;;;4992801;28;20228;-74
2023/05/02 16:48:50;;;;;;;0.40;0.40;;;11.60;99.90;;;;;;4991069;28;20207;-74
2023/05/02 16:51:17;;;;;;;1.30;0.75;;;11.40;99.90;;;;;;4991045;28;20668;-74
2023/05/02 16:53:45;;;;;;;1.00;0.47;;;11.30;99.90;;;;;;4990879;28;20213;-74
2023/05/02 16:56:12;;;;;;;1.27;1.23;;;11.30;99.90;;;;;;4990956;28;20255;-73